Time;durP1;ratioP1;P1;durP2;ratioP2;P2;SDS_P1;SDS_P2;PMS_P1;PMS_P2;Temp;Humidity;BMP_temperature;BMP_pressure;BME280_temperature;BME280_humidity;BME280_pressure;Samples;Min_cycle;Max_cycle;Signal;HPM_P1;HPM_P2
2021/09/02 00:00:31;;;;;;;10.57;4.28;;;;;;;13.71;100.00;95105.34;10285672;28;20293;-72
2021/09/02 00:05:31;;;;;;;9.80;5.40;;;;;;;13.55;100.00;95106.56;10285219;28;20359;-71
2021/09/02 00:10:33;;;;;;;9.68;4.75;;;;;;;13.43;100.00;95106.94;10284981;28;20059;-72
2021/09/02 00:15:34;;;;;;;9.55;5.95;;;;;;;13.33;100.00;95119.38;10284661;28;20063;-72
2021/09/02 00:20:34;;;;;;;17.15;5.15;;;;;;;13.46;100.00;95112.56;10283158;28;20093;-72
2021/09/02 00:25:34;;;;;;;12.45;5.88;;;;;;;13.57;100.00;95112.50;10286194;28;20056;-72
2021/09/02 00:30:35;;;;;;;10.98;5.50;;;;;;;13.51;100.00;95106.34;10291351;28;20034;-72
2021/09/02 00:35:35;;;;;;;9.70;5.17;;;;;;;13.60;100.00;95114.63;10292564;28;20035;-72
2021/09/02 00:40:36;;;;;;;11.10;5.47;;;;;;;13.63;100.00;95105.94;10291847;28;20278;-72
2021/09/02 00:45:36;;;;;;;8.77;4.60;;;;;;;13.73;100.00;95095.06;10291955;28;20057;-72
2021/09/02 00:50:36;;;;;;;6.47;4.40;;;;;;;13.78;100.00;95103.13;10292012;28;20284;-72
2021/09/02 00:55:37;;;;;;;7.43;4.32;;;;;;;13.83;100.00;95105.78;10291186;28;20130;-72
2021/09/02 01:00:38;;;;;;;7.68;4.28;;;;;;;13.74;100.00;95101.28;10290158;28;20045;-72
2021/09/02 01:05:38;;;;;;;7.47;4.68;;;;;;;13.78;100.00;95108.50;10289920;28;20089;-72
2021/09/02 01:10:40;;;;;;;12.27;6.05;;;;;;;13.73;100.00;95097.78;10290642;28;20069;-72
2021/09/02 01:15:40;;;;;;;8.82;4.45;;;;;;;13.55;100.00;95098.44;10289648;28;20035;-72
2021/09/02 01:20:41;;;;;;;7.53;4.33;;;;;;;13.43;100.00;95096.94;10289669;28;20156;-72
2021/09/02 01:25:42;;;;;;;8.80;4.93;;;;;;;13.34;100.00;95098.59;10288357;28;20509;-72
2021/09/02 01:30:43;;;;;;;7.85;4.30;;;;;;;13.28;100.00;95088.91;10289806;28;20045;-72
2021/09/02 01:35:44;;;;;;;6.63;3.67;;;;;;;13.36;100.00;95090.25;10289329;28;20037;-72
2021/09/02 01:40:47;;;;;;;8.23;4.50;;;;;;;13.19;100.00;95098.72;10289288;28;20037;-72
2021/09/02 01:45:47;;;;;;;8.95;4.65;;;;;;;13.23;100.00;95089.78;10289711;28;20023;-72
2021/09/02 01:50:48;;;;;;;6.80;4.50;;;;;;;13.13;100.00;95089.81;10289777;28;20512;-72
2021/09/02 01:55:48;;;;;;;7.70;4.77;;;;;;;13.08;100.00;95087.19;10288895;28;20442;-72
2021/09/02 02:00:49;;;;;;;8.53;5.17;;;;;;;12.97;100.00;95089.13;10289246;28;20056;-72
2021/09/02 02:05:49;;;;;;;9.17;4.63;;;;;;;12.97;100.00;95086.44;10288133;28;20290;-72
2021/09/02 02:10:49;;;;;;;10.33;4.70;;;;;;;12.97;100.00;95089.91;10287185;28;20126;-72
2021/09/02 02:15:50;;;;;;;11.50;5.32;;;;;;;12.95;100.00;95086.72;10287604;28;20102;-72
2021/09/02 02:20:50;;;;;;;9.52;5.65;;;;;;;12.98;100.00;95088.06;10288463;28;20031;-72
2021/09/02 02:25:51;;;;;;;8.07;5.27;;;;;;;13.05;100.00;95090.44;10288207;28;20035;-71
2021/09/02 02:30:51;;;;;;;9.03;5.53;;;;;;;13.13;100.00;95096.03;10286720;28;20034;-72
2021/09/02 02:35:52;;;;;;;9.63;5.63;;;;;;;13.11;100.00;95084.72;10287569;28;20113;-71
2021/09/02 02:40:52;;;;;;;11.38;6.18;;;;;;;13.18;100.00;95100.59;10286967;28;20018;-72
2021/09/02 02:45:53;;;;;;;11.43;6.43;;;;;;;13.22;100.00;95087.34;10287152;28;20406;-71
2021/09/02 02:50:54;;;;;;;10.25;5.80;;;;;;;13.24;100.00;95094.09;10285757;28;20533;-72
2021/09/02 02:55:54;;;;;;;10.00;6.70;;;;;;;13.30;100.00;95095.66;10286295;28;20384;-72
2021/09/02 03:00:54;;;;;;;19.07;7.87;;;;;;;13.42;100.00;95099.91;10286338;28;20031;-72
2021/09/02 03:05:55;;;;;;;9.20;5.87;;;;;;;13.46;100.00;95099.06;10287043;28;20278;-73
2021/09/02 03:10:55;;;;;;;13.10;6.40;;;;;;;13.58;100.00;95108.72;10286705;28;20038;-71
2021/09/02 03:15:55;;;;;;;8.53;5.67;;;;;;;13.66;100.00;95103.50;10286255;28;20027;-71
2021/09/02 03:20:56;;;;;;;13.23;6.27;;;;;;;13.81;100.00;95110.66;10286366;28;20031;-71
2021/09/02 03:25:57;;;;;;;15.53;6.90;;;;;;;13.91;100.00;95103.53;10286294;28;20352;-71
2021/09/02 03:30:57;;;;;;;15.63;6.32;;;;;;;13.67;100.00;95115.09;10286096;28;20043;-71
2021/09/02 03:35:57;;;;;;;12.02;6.05;;;;;;;13.48;100.00;95110.41;10285742;28;20086;-73
2021/09/02 03:40:58;;;;;;;10.10;6.83;;;;;;;13.40;100.00;95107.50;10285972;28;20039;-71
2021/09/02 03:45:58;;;;;;;11.70;7.53;;;;;;;13.24;100.00;95101.34;10285565;28;20273;-71
2021/09/02 03:50:58;;;;;;;13.10;8.17;;;;;;;13.24;100.00;95104.88;10285480;28;20092;-73
2021/09/02 03:55:59;;;;;;;14.47;9.63;;;;;;;13.22;100.00;95101.66;10285663;28;20037;-73
2021/09/02 04:00:59;;;;;;;12.23;7.97;;;;;;;13.25;100.00;95105.69;10288424;28;20034;-70
2021/09/02 04:06:00;;;;;;;13.13;7.80;;;;;;;13.30;100.00;95127.25;10292993;28;20306;-71
2021/09/02 04:11:00;;;;;;;12.47;7.27;;;;;;;13.43;100.00;95133.94;10293365;28;20121;-72
2021/09/02 04:16:00;;;;;;;11.70;8.07;;;;;;;13.43;100.00;95123.94;10292722;28;20038;-72
2021/09/02 04:21:04;;;;;;;12.40;8.23;;;;;;;13.70;100.00;95124.53;10292714;28;20026;-72
2021/09/02 04:26:05;;;;;;;18.25;7.95;;;;;;;13.93;100.00;95126.50;10292742;28;20363;-72
2021/09/02 04:31:05;;;;;;;13.27;7.30;;;;;;;13.99;100.00;95130.75;10291014;28;20035;-71
2021/09/02 04:36:05;;;;;;;15.63;8.17;;;;;;;14.10;100.00;95133.38;10291850;28;20037;-72
2021/09/02 04:41:06;;;;;;;15.03;7.70;;;;;;;14.13;100.00;95143.59;10292057;28;20274;-72
2021/09/02 04:46:07;;;;;;;12.38;7.28;;;;;;;14.12;100.00;95144.69;10291849;28;20034;-72
2021/09/02 04:51:08;;;;;;;11.20;6.70;;;;;;;14.25;100.00;95152.13;10291368;28;20031;-72
2021/09/02 04:56:09;;;;;;;11.20;6.63;;;;;;;14.19;100.00;95151.38;10291523;28;20035;-71
2021/09/02 05:01:09;;;;;;;11.63;6.25;;;;;;;14.16;100.00;95153.84;10290940;28;20379;-71
2021/09/02 05:06:10;;;;;;;11.27;6.73;;;;;;;14.23;100.00;95156.22;10293473;28;20178;-71
2021/09/02 05:11:10;;;;;;;12.00;6.97;;;;;;;14.05;100.00;95166.66;10319598;28;20038;-71
2021/09/02 05:16:10;;;;;;;9.23;6.27;;;;;;;13.78;100.00;95169.84;10290560;28;20027;-75
2021/09/02 05:21:11;;;;;;;15.18;7.25;;;;;;;13.85;100.00;95171.13;10290359;28;20097;-74
2021/09/02 05:26:11;;;;;;;9.20;6.25;;;;;;;13.81;100.00;95171.97;10289852;28;20027;-71
2021/09/02 05:31:12;;;;;;;17.90;6.78;;;;;;;14.01;100.00;95166.41;10289325;28;20026;-72
2021/09/02 05:36:12;;;;;;;10.68;6.63;;;;;;;14.38;100.00;95174.19;10287852;28;20040;-74
2021/09/02 05:41:13;;;;;;;8.07;5.65;;;;;;;14.66;100.00;95176.06;10288334;28;20041;-72
2021/09/02 05:46:13;;;;;;;8.67;6.20;;;;;;;14.89;100.00;95173.63;10288304;28;20050;-73
2021/09/02 05:51:14;;;;;;;9.87;6.77;;;;;;;15.02;100.00;95175.63;10289166;28;20027;-73
2021/09/02 05:56:14;;;;;;;11.32;6.30;;;;;;;15.30;100.00;95178.50;10288442;28;20378;-72
2021/09/02 06:01:16;;;;;;;12.93;5.27;;;;;;;16.45;100.00;95168.31;10288660;28;20031;-73
2021/09/02 06:06:16;;;;;;;11.95;3.95;;;;;;;18.04;100.00;95166.06;10287270;28;20751;-73
2021/09/02 06:11:16;;;;;;;8.93;4.17;;;;;;;18.16;100.00;95166.28;10285133;28;20035;-73
2021/09/02 06:16:17;;;;;;;8.53;3.93;;;;;;;19.11;95.11;95154.22;10285773;28;20085;-73
2021/09/02 06:21:18;;;;;;;7.53;4.30;;;;;;;18.33;96.91;95162.06;10286866;28;20030;-73
2021/09/02 06:26:18;;;;;;;4.97;3.65;;;;;;;17.87;100.00;95159.34;10286677;28;20123;-73
2021/09/02 06:31:18;;;;;;;7.23;3.53;;;;;;;17.68;100.00;95159.53;10286724;28;20031;-73
2021/09/02 06:36:20;;;;;;;11.37;4.10;;;;;;;17.92;100.00;95161.19;10287146;28;20114;-73
2021/09/02 06:41:20;;;;;;;13.73;4.20;;;;;;;17.93;100.00;95160.88;10286804;28;20062;-73
2021/09/02 06:46:21;;;;;;;7.23;3.30;;;;;;;18.69;96.41;95163.84;10286076;28;20486;-73
2021/09/02 06:51:21;;;;;;;7.20;3.50;;;;;;;19.36;90.00;95170.94;10285199;28;20026;-73
2021/09/02 06:56:22;;;;;;;5.63;3.27;;;;;;;18.22;95.34;95161.53;10286609;28;20031;-73
2021/09/02 07:01:22;;;;;;;6.90;3.57;;;;;;;18.50;99.35;95174.97;10285907;28;20105;-73
2021/09/02 07:06:22;;;;;;;5.38;3.15;;;;;;;18.67;100.00;95166.88;10223795;28;1307564;-73
2021/09/02 07:11:23;;;;;;;14.10;4.38;;;;;;;19.89;91.55;95157.38;10287437;28;20035;-73
2021/09/02 07:16:23;;;;;;;10.40;2.80;;;;;;;21.50;77.22;95165.13;10286421;28;20027;-73
2021/09/02 07:21:24;;;;;;;4.28;2.92;;;;;;;22.28;66.85;95166.41;10287447;28;20102;-73
2021/09/02 07:26:24;;;;;;;5.30;3.20;;;;;;;22.93;60.26;95168.63;10287241;28;20027;-73
2021/09/02 07:31:24;;;;;;;5.73;2.97;;;;;;;25.59;50.93;95160.63;10287121;28;20035;-73
2021/09/02 07:36:25;;;;;;;6.30;3.43;;;;;;;26.56;45.06;95172.84;10285882;28;20030;-74
2021/09/02 07:41:25;;;;;;;6.70;2.83;;;;;;;25.24;47.84;95158.63;10287202;28;20109;-73
2021/09/02 07:46:25;;;;;;;5.70;2.20;;;;;;;26.23;46.14;95163.16;10286634;28;20030;-73
2021/09/02 07:51:26;;;;;;;12.10;2.63;;;;;;;27.38;43.08;95165.19;10286534;28;20030;-73
2021/09/02 07:56:26;;;;;;;7.73;2.43;;;;;;;28.45;39.32;95159.50;10286447;28;20317;-74
2021/09/02 08:01:27;;;;;;;4.80;2.00;;;;;;;29.05;37.74;95146.63;10286474;28;20293;-73
2021/09/02 08:06:27;;;;;;;4.53;2.07;;;;;;;26.66;40.40;95152.94;10285652;28;20451;-73
2021/09/02 08:11:28;;;;;;;3.17;2.37;;;;;;;26.64;43.11;95154.47;10285979;28;20495;-73
2021/09/02 08:16:29;;;;;;;4.40;2.00;;;;;;;27.20;41.02;95153.06;10286433;28;20344;-73
2021/09/02 08:21:30;;;;;;;10.50;2.28;;;;;;;27.63;39.41;95143.47;10285539;28;20033;-73
2021/09/02 08:26:31;;;;;;;2.70;1.90;;;;;;;26.85;40.56;95146.59;10285790;28;20027;-73
2021/09/02 08:31:31;;;;;;;9.77;3.88;;;;;;;27.62;40.18;95149.38;10285649;28;20045;-73
2021/09/02 08:36:34;;;;;;;3.25;2.20;;;;;;;27.77;39.29;95137.34;10283893;28;20030;-73
2021/09/02 08:41:35;;;;;;;8.90;2.47;;;;;;;28.06;39.17;95150.75;10285322;28;20521;-74
2021/09/02 08:46:36;;;;;;;4.30;2.30;;;;;;;27.58;38.97;95156.81;10287687;28;20108;-73
2021/09/02 08:51:36;;;;;;;5.13;2.30;;;;;;;28.85;37.79;95143.31;10292095;28;20034;-73
2021/09/02 08:56:37;;;;;;;7.25;2.90;;;;;;;27.63;39.49;95132.44;10292239;28;20029;-73
2021/09/02 09:01:37;;;;;;;8.35;2.22;;;;;;;25.65;43.14;95133.63;10292411;28;20541;-73
2021/09/02 09:06:39;;;;;;;7.05;2.47;;;;;;;26.68;44.73;95134.06;10291761;28;20419;-73
2021/09/02 09:11:47;;;;;;;7.82;2.53;;;;;;;27.15;40.98;95137.59;10291826;28;20042;-73
2021/09/02 09:16:50;;;;;;;2.97;2.38;;;;;;;27.05;42.03;95135.50;10291374;28;20411;-73
2021/09/02 09:22:01;;;;;;;2.97;2.15;;;;;;;26.65;40.92;95134.00;10291012;28;20054;-73
2021/09/02 09:27:07;;;;;;;5.13;2.10;;;;;;;24.68;48.52;95132.94;10291427;28;20110;-73
2021/09/02 09:32:16;;;;;;;5.82;1.75;;;;;;;24.48;49.21;95120.25;10291119;28;20029;-73
2021/09/02 09:37:19;;;;;;;5.97;1.83;;;;;;;23.69;49.87;95125.16;10290246;28;20027;-73
2021/09/02 09:42:19;;;;;;;5.72;2.40;;;;;;;22.58;57.01;95127.97;10290404;28;20039;-72
2021/09/02 09:47:21;;;;;;;2.67;2.13;;;;;;;23.95;54.17;95129.41;10290618;28;20512;-73
2021/09/02 09:52:29;;;;;;;8.15;2.60;;;;;;;26.18;44.97;95122.94;10290524;28;20277;-73
2021/09/02 09:57:32;;;;;;;3.72;2.17;;;;;;;26.17;43.85;95120.53;10289128;28;20034;-73
2021/09/02 10:02:35;;;;;;;5.25;2.35;;;;;;;27.38;40.64;95126.56;10290099;28;20398;-74
2021/09/02 10:07:36;;;;;;;2.50;1.77;;;;;;;27.78;39.40;95116.84;10289388;28;20047;-74
2021/09/02 10:12:38;;;;;;;10.93;2.55;;;;;;;27.39;40.25;95122.63;10289480;28;20031;-73
2021/09/02 10:17:40;;;;;;;4.53;2.15;;;;;;;25.31;44.59;95133.25;10289212;28;20463;-73
2021/09/02 10:22:41;;;;;;;8.18;2.83;;;;;;;24.10;48.59;95135.31;10289630;28;20105;-73
2021/09/02 10:27:42;;;;;;;3.28;2.10;;;;;;;23.50;52.31;95142.22;10288968;28;20110;-73
2021/09/02 10:32:42;;;;;;;4.57;1.97;;;;;;;25.10;46.07;95128.84;10287517;28;20057;-73
2021/09/02 10:37:43;;;;;;;5.57;2.10;;;;;;;24.47;48.76;95137.88;10288465;28;20034;-73
2021/09/02 10:42:43;;;;;;;3.97;1.92;;;;;;;24.35;48.12;95120.31;10288433;28;20035;-73
2021/09/02 10:47:44;;;;;;;2.10;1.50;;;;;;;25.49;43.41;95120.69;10287081;28;20026;-73
2021/09/02 10:52:45;;;;;;;3.97;2.33;;;;;;;23.30;47.65;95130.25;10286313;28;20022;-73
2021/09/02 10:57:45;;;;;;;4.15;2.30;;;;;;;22.34;55.83;95132.25;10270570;28;20410;-74
2021/09/02 11:02:45;;;;;;;2.90;1.80;;;;;;;23.02;54.15;95136.44;10287623;28;20534;-73
2021/09/02 11:07:48;;;;;;;7.38;2.10;;;;;;;25.99;44.17;95128.44;10287046;28;20054;-73
2021/09/02 11:12:59;;;;;;;4.35;1.55;;;;;;;27.92;37.03;95119.00;10285077;28;20026;-74
2021/09/02 11:18:05;;;;;;;3.72;1.67;;;;;;;27.25;37.74;95123.19;10283581;28;20105;-73
2021/09/02 11:23:10;;;;;;;5.72;1.88;;;;;;;23.65;46.19;95126.16;10283774;28;20109;-72
2021/09/02 11:28:11;;;;;;;7.57;1.60;;;;;;;23.34;50.56;95133.09;10283975;28;20057;-73
2021/09/02 11:33:11;;;;;;;4.43;2.35;;;;;;;22.97;52.63;95130.34;10284510;28;20050;-74
2021/09/02 11:38:15;;;;;;;7.68;2.05;;;;;;;22.53;54.34;95131.69;10286256;28;20085;-73
2021/09/02 11:43:17;;;;;;;2.50;1.70;;;;;;;21.75;52.75;95143.41;10286469;28;20035;-73
2021/09/02 11:48:18;;;;;;;4.00;2.17;;;;;;;21.79;56.84;95145.13;10291922;28;20026;-73
2021/09/02 11:53:25;;;;;;;4.40;1.90;;;;;;;21.97;52.22;95134.84;10286542;28;20027;-73
2021/09/02 11:58:26;;;;;;;4.18;1.80;;;;;;;21.94;51.85;95138.25;10286708;28;20285;-73
2021/09/02 12:03:26;;;;;;;5.13;2.38;;;;;;;21.96;53.42;95135.16;10286253;28;20062;-73
2021/09/02 12:08:27;;;;;;;4.17;2.70;;;;;;;21.97;55.44;95129.34;10286510;28;20074;-73
2021/09/02 12:13:35;;;;;;;7.22;3.13;;;;;;;21.84;54.94;95114.84;10286315;28;20357;-73
2021/09/02 12:18:38;;;;;;;6.00;2.72;;;;;;;21.78;54.74;95121.66;10288448;28;20027;-73
2021/09/02 12:23:57;;;;;;;3.72;2.60;;;;;;;22.08;52.58;95124.28;10291115;28;20089;-74
2021/09/02 12:28:57;;;;;;;;;;;;;;;21.92;50.10;95115.91;10293846;28;20031;-71
2021/09/02 12:34:10;;;;;;;6.18;3.15;;;;;;;22.03;52.90;95116.25;10293247;28;19910;-72
2021/09/02 12:39:17;;;;;;;4.32;3.17;;;;;;;22.14;54.34;95108.44;10293219;28;20031;-72
2021/09/02 12:44:21;;;;;;;10.13;3.27;;;;;;;22.28;49.06;95127.28;10292926;28;20133;-72
2021/09/02 12:49:23;;;;;;;4.07;2.15;;;;;;;22.01;47.98;95113.88;10292890;28;20090;-72
2021/09/02 12:54:24;;;;;;;3.67;2.28;;;;;;;21.90;49.55;95120.91;10292440;28;20031;-72
2021/09/02 12:59:24;;;;;;;3.63;2.17;;;;;;;21.55;49.12;95114.94;10292114;28;20089;-72
2021/09/02 13:04:24;;;;;;;3.20;2.30;;;;;;;21.57;50.14;95110.72;10292315;28;20329;-74
2021/09/02 13:09:25;;;;;;;2.97;1.83;;;;;;;21.74;49.89;95098.84;10292039;28;20290;-72
2021/09/02 13:14:25;;;;;;;2.35;2.10;;;;;;;21.42;48.87;95103.09;10292278;28;20026;-72
2021/09/02 13:19:26;;;;;;;2.73;2.13;;;;;;;21.72;49.71;95101.09;10291715;28;20058;-72
2021/09/02 13:24:26;;;;;;;4.38;2.50;;;;;;;21.92;51.70;95102.22;10290258;28;20027;-72
2021/09/02 13:29:27;;;;;;;4.77;2.60;;;;;;;21.54;53.04;95110.59;10290931;28;20088;-72
2021/09/02 13:34:27;;;;;;;3.63;2.70;;;;;;;21.26;56.56;95111.88;10290790;28;20027;-72
2021/09/02 13:39:28;;;;;;;4.43;2.90;;;;;;;21.57;55.38;95116.19;10290855;28;20026;-72
2021/09/02 13:44:29;;;;;;;8.73;3.27;;;;;;;21.95;57.48;95109.75;10290675;28;20277;-72
2021/09/02 13:49:29;;;;;;;54.92;17.83;;;;;;;22.12;52.01;95122.47;10272901;28;20278;-72
2021/09/02 13:54:30;;;;;;;81.00;25.98;;;;;;;22.05;50.91;95110.44;10272820;28;20027;-72
2021/09/02 13:59:30;;;;;;;4.78;3.10;;;;;;;21.99;54.99;95110.69;10289743;28;20058;-72
2021/09/02 14:04:31;;;;;;;7.95;2.97;;;;;;;21.72;54.60;95111.25;10289041;28;20053;-72
2021/09/02 14:09:32;;;;;;;4.30;3.10;;;;;;;21.21;54.95;95103.06;10272072;28;20081;-72
2021/09/02 14:14:32;;;;;;;4.38;3.47;;;;;;;21.03;62.73;95121.50;10289580;28;20031;-73
2021/09/02 14:19:32;;;;;;;9.93;4.67;;;;;;;21.14;59.95;95115.34;10288742;28;20023;-73
2021/09/02 14:24:33;;;;;;;5.07;2.50;;;;;;;20.65;62.33;95114.94;10288936;28;20274;-73
2021/09/02 14:29:34;;;;;;;4.78;3.17;;;;;;;20.70;61.02;95109.31;10288706;28;20019;-74
2021/09/02 14:34:34;;;;;;;4.67;2.70;;;;;;;20.77;62.48;95112.34;10288379;28;20442;-73
2021/09/02 14:39:34;;;;;;;5.43;3.37;;;;;;;20.76;61.71;95116.22;10288315;28;20031;-74
2021/09/02 14:44:35;;;;;;;4.07;2.97;;;;;;;21.20;60.74;95107.75;10287940;28;20037;-73
2021/09/02 14:49:35;;;;;;;6.63;3.40;;;;;;;21.64;57.14;95116.47;10290901;28;20285;-71
2021/09/02 14:54:35;;;;;;;5.73;3.13;;;;;;;21.75;56.11;95116.84;10327952;28;20105;-72
2021/09/02 14:59:36;;;;;;;4.50;3.17;;;;;;;21.61;54.61;95125.31;10328398;28;20882;-73
2021/09/02 15:04:36;;;;;;;6.47;3.70;;;;;;;21.77;55.08;95127.44;10327918;28;20478;-71
2021/09/02 15:09:37;;;;;;;5.90;2.97;;;;;;;21.65;55.63;95120.78;10327529;28;20137;-71
2021/09/02 15:14:37;;;;;;;6.50;3.43;;;;;;;21.40;56.87;95116.31;10327632;28;20034;-71
2021/09/02 15:19:38;;;;;;;9.55;3.75;;;;;;;21.46;56.01;95120.44;10327127;28;20026;-71
2021/09/02 15:24:40;;;;;;;11.50;4.33;;;;;;;21.55;56.93;95120.41;10326320;28;20478;-76
2021/09/02 15:29:40;;;;;;;5.60;3.75;;;;;;;21.38;57.98;95124.03;10326678;28;20036;-72
2021/09/02 15:34:40;;;;;;;5.53;3.80;;;;;;;21.26;59.60;95116.56;10327195;28;20040;-73
2021/09/02 15:39:41;;;;;;;7.90;4.00;;;;;;;20.93;60.94;95117.22;10325397;28;20038;-72
2021/09/02 15:44:41;;;;;;;8.40;3.90;;;;;;;20.79;62.64;95114.72;10325417;28;20273;-72
2021/09/02 15:49:41;;;;;;;11.27;4.10;;;;;;;20.61;66.19;95114.81;10326669;28;20027;-72
2021/09/02 15:54:42;;;;;;;9.40;5.77;;;;;;;20.49;66.04;95112.75;10309360;28;20035;-73
2021/09/02 15:59:42;;;;;;;7.87;4.63;;;;;;;20.40;69.46;95109.25;10333908;28;20023;-73
2021/09/02 16:04:42;;;;;;;7.80;4.87;;;;;;;20.34;66.92;95120.69;10334988;28;20504;-74
2021/09/02 16:09:43;;;;;;;8.13;4.93;;;;;;;20.09;68.20;95123.16;10334036;28;20112;-73
2021/09/02 16:14:43;;;;;;;11.27;4.73;;;;;;;19.94;65.60;95122.53;10334011;28;20422;-72
2021/09/02 16:19:44;;;;;;;9.45;5.10;;;;;;;19.79;66.65;95128.47;10333977;28;20026;-73
2021/09/02 16:24:44;;;;;;;7.67;4.93;;;;;;;19.73;65.70;95132.47;10333911;28;20750;-72
2021/09/02 16:29:44;;;;;;;9.07;5.22;;;;;;;19.75;68.67;95143.88;10333525;28;20030;-72
2021/09/02 16:34:45;;;;;;;6.10;4.23;;;;;;;19.79;64.73;95140.19;10333735;28;20028;-72
2021/09/02 16:39:45;;;;;;;9.07;4.90;;;;;;;19.70;65.31;95154.94;10333236;28;20831;-73
2021/09/02 16:44:46;;;;;;;11.30;4.40;;;;;;;19.75;63.47;95158.28;10333604;28;20340;-72
2021/09/02 16:49:47;;;;;;;9.85;4.65;;;;;;;19.68;62.57;95154.47;10333485;28;20031;-73
2021/09/02 16:54:48;;;;;;;7.85;5.00;;;;;;;19.66;62.79;95156.69;10333187;28;20038;-74
2021/09/02 16:59:48;;;;;;;10.43;5.43;;;;;;;19.68;62.89;95160.72;10333049;28;20802;-73
2021/09/02 17:04:48;;;;;;;14.43;4.80;;;;;;;19.66;64.47;95162.16;10332654;28;20601;-73
2021/09/02 17:09:49;;;;;;;10.80;6.20;;;;;;;19.61;65.95;95174.81;10331590;28;20494;-74
2021/09/02 17:14:49;;;;;;;9.07;5.03;;;;;;;19.23;66.28;95183.59;10331936;28;20398;-73
2021/09/02 17:19:50;;;;;;;7.47;4.90;;;;;;;19.18;67.84;95191.13;10332294;28;20301;-73
2021/09/02 17:24:50;;;;;;;9.93;5.43;;;;;;;19.06;68.72;95195.25;10332310;28;20027;-73
2021/09/02 17:29:50;;;;;;;14.50;5.47;;;;;;;19.01;67.96;95202.75;10330614;28;20524;-73
2021/09/02 17:34:51;;;;;;;7.27;5.20;;;;;;;18.66;72.66;95213.47;10329815;28;20083;-73
2021/09/02 17:39:51;;;;;;;7.80;5.22;;;;;;;18.31;73.77;95227.69;10329892;28;20033;-72
2021/09/02 17:44:52;;;;;;;8.52;5.22;;;;;;;18.28;76.83;95250.09;10327039;28;20022;-72
2021/09/02 17:49:52;;;;;;;7.57;5.40;;;;;;;18.03;75.63;95248.75;10330048;28;20497;-72
2021/09/02 17:54:52;;;;;;;7.27;5.33;;;;;;;17.94;80.82;95256.84;10330313;28;20030;-72
2021/09/02 17:59:53;;;;;;;19.63;5.87;;;;;;;17.86;84.62;95262.97;10334140;28;20036;-72
2021/09/02 18:04:53;;;;;;;7.30;4.77;;;;;;;17.70;83.40;95268.75;10354175;28;20030;-72
2021/09/02 18:09:53;;;;;;;10.07;6.60;;;;;;;17.56;82.99;95276.16;10331447;28;20125;-72
2021/09/02 18:14:54;;;;;;;8.77;5.43;;;;;;;17.41;86.38;95277.25;10347425;28;20033;-72
2021/09/02 18:19:55;;;;;;;11.20;5.23;;;;;;;17.33;90.58;95286.13;10330747;28;20103;-72
2021/09/02 18:24:55;;;;;;;6.82;5.20;;;;;;;17.36;91.21;95291.75;10289848;28;20034;-72
2021/09/02 18:29:56;;;;;;;8.40;5.20;;;;;;;17.22;90.47;95290.97;10328728;28;20115;-72
2021/09/02 18:34:56;;;;;;;8.37;5.33;;;;;;;17.19;90.57;95297.81;10328349;28;20273;-72
2021/09/02 18:39:57;;;;;;;12.10;5.80;;;;;;;17.20;92.73;95301.31;10328203;28;20019;-72
2021/09/02 18:44:59;;;;;;;10.17;5.80;;;;;;;17.37;93.23;95306.13;10327830;28;20274;-73
2021/09/02 18:50:00;;;;;;;8.05;5.13;;;;;;;17.31;88.73;95304.63;10327894;28;20277;-71
2021/09/02 18:55:00;;;;;;;8.63;6.13;;;;;;;17.26;89.54;95324.53;10328011;28;20022;-71
2021/09/02 19:00:00;;;;;;;11.60;5.90;;;;;;;17.30;93.00;95320.13;10327546;28;20441;-72
2021/09/02 19:05:06;;;;;;;11.70;4.85;;;;;;;17.17;91.95;95326.38;10320424;28;20287;-71
2021/09/02 19:10:07;;;;;;;7.82;5.60;;;;;;;17.02;94.09;95322.00;10328459;28;20054;-72
2021/09/02 19:15:10;;;;;;;11.82;6.03;;;;;;;16.96;94.57;95320.50;10327675;28;20365;-71
2021/09/02 19:20:11;;;;;;;8.57;6.03;;;;;;;16.99;94.65;95328.84;10309786;28;20034;-71
2021/09/02 19:25:12;;;;;;;9.57;6.03;;;;;;;17.11;98.01;95333.81;10326883;28;20045;-72
2021/09/02 19:30:13;;;;;;;7.88;6.03;;;;;;;17.01;94.61;95331.25;10326737;28;20041;-72
2021/09/02 19:35:14;;;;;;;6.63;4.85;;;;;;;17.04;97.29;95333.41;10310339;28;20031;-71
2021/09/02 19:40:14;;;;;;;11.18;5.40;;;;;;;16.98;94.36;95332.69;10286038;28;20046;-72
2021/09/02 19:45:19;;;;;;;8.40;4.95;;;;;;;16.90;92.35;95338.81;10287022;28;20086;-72
2021/09/02 19:50:25;;;;;;;10.43;5.63;;;;;;;16.84;94.42;95335.34;10286049;28;20035;-72
2021/09/02 19:55:25;;;;;;;8.10;5.22;;;;;;;16.85;95.97;95350.50;10286135;28;20442;-72
2021/09/02 20:00:27;;;;;;;7.50;4.87;;;;;;;16.78;95.26;95350.09;10286656;28;20085;-72
2021/09/02 20:05:39;;;;;;;11.55;4.97;;;;;;;16.76;98.09;95368.59;10319004;28;20296;-73
2021/09/02 20:10:40;;;;;;;10.65;8.63;;;;;;;16.82;92.52;95372.81;10325784;28;20062;-72
2021/09/02 20:15:42;;;;;;;9.02;5.03;;;;;;;16.69;95.90;95371.69;10321057;28;20046;-72
2021/09/02 20:20:43;;;;;;;9.02;4.75;;;;;;;16.67;93.44;95382.00;10285843;28;20027;-72
2021/09/02 20:25:45;;;;;;;5.40;4.45;;;;;;;16.81;93.12;95379.34;10285427;28;20134;-72
2021/09/02 20:30:46;;;;;;;8.07;4.32;;;;;;;16.56;93.74;95386.81;10286354;28;20081;-73
2021/09/02 20:35:57;;;;;;;6.70;5.05;;;;;;;16.58;95.31;95391.94;10285687;28;20035;-72
2021/09/02 20:41:08;;;;;;;14.55;4.70;;;;;;;16.60;90.58;95391.66;10285996;28;20113;-73
2021/09/02 20:46:11;;;;;;;6.95;4.55;;;;;;;16.53;93.76;95389.31;10293058;28;20065;-72
2021/09/02 20:51:13;;;;;;;6.78;4.28;;;;;;;16.47;89.01;95399.44;10292513;28;20077;-72
2021/09/02 20:56:13;;;;;;;9.48;3.97;;;;;;;16.60;94.48;95400.59;10292407;28;20039;-72
2021/09/02 21:01:14;;;;;;;6.87;4.10;;;;;;;16.67;91.66;95408.34;10292375;28;20826;-72
2021/09/02 21:06:16;;;;;;;7.43;4.57;;;;;;;16.51;91.70;95397.75;10331705;28;20046;-72
2021/09/02 21:11:17;;;;;;;6.50;4.20;;;;;;;16.26;95.59;95403.53;10332116;28;20034;-72
2021/09/02 21:16:20;;;;;;;6.75;3.65;;;;;;;16.12;95.96;95408.88;10331863;28;20030;-72
2021/09/02 21:21:26;;;;;;;6.03;3.97;;;;;;;16.14;97.90;95417.53;10331899;28;20030;-72
2021/09/02 21:26:33;;;;;;;8.82;3.83;;;;;;;16.09;96.65;95409.44;10331438;28;20033;-72
2021/09/02 21:31:51;;;;;;;6.63;4.57;;;;;;;15.94;97.07;95405.06;10331648;28;20065;-72
2021/09/02 21:36:52;;;;;;;8.53;5.13;;;;;;;15.80;97.83;95422.00;10331777;28;20141;-72
2021/09/02 21:41:57;;;;;;;4.93;3.35;;;;;;;15.74;97.97;95412.31;10331106;28;20034;-72
2021/09/02 21:47:03;;;;;;;6.75;4.07;;;;;;;15.77;99.42;95405.47;10330581;28;20030;-72
2021/09/02 21:52:03;;;;;;;18.08;9.20;;;;;;;15.67;100.00;95411.81;10324497;28;20030;-72
2021/09/02 21:57:05;;;;;;;19.98;8.57;;;;;;;15.75;100.00;95416.59;10288448;28;20038;-72
2021/09/02 22:02:06;;;;;;;6.28;4.10;;;;;;;15.84;100.00;95419.53;10295629;28;20508;-72
2021/09/02 22:07:08;;;;;;;5.75;3.72;;;;;;;15.87;99.51;95427.09;10330549;28;20077;-72
2021/09/02 22:12:32;;;;;;;6.00;3.40;;;;;;;15.96;98.30;95421.81;10326879;28;20030;-72
2021/09/02 22:17:41;;;;;;;7.47;3.30;;;;;;;15.98;100.00;95420.44;10327146;28;20026;-71
2021/09/02 22:22:46;;;;;;;5.60;3.38;;;;;;;15.91;100.00;95419.16;10328373;28;20109;-72
2021/09/02 22:27:47;;;;;;;5.97;3.00;;;;;;;15.92;99.64;95420.78;10328580;28;20137;-71
2021/09/02 22:32:48;;;;;;;6.07;3.40;;;;;;;15.86;98.68;95410.00;10326935;28;20057;-72
2021/09/02 22:37:50;;;;;;;5.22;3.63;;;;;;;15.69;99.44;95406.94;10327947;28;20039;-71
2021/09/02 22:42:52;;;;;;;6.55;4.38;;;;;;;15.57;100.00;95410.03;10327707;28;20045;-72
2021/09/02 22:47:53;;;;;;;6.60;4.60;;;;;;;15.47;100.00;95412.88;10327488;28;20458;-72
2021/09/02 22:52:56;;;;;;;6.93;3.72;;;;;;;15.33;100.00;95407.31;10327406;28;20034;-72
2021/09/02 22:57:56;;;;;;;6.45;4.03;;;;;;;15.21;100.00;95408.53;10327296;28;20027;-72
2021/09/02 23:02:57;;;;;;;10.70;4.18;;;;;;;15.07;100.00;95399.47;10327225;28;20065;-71
2021/09/02 23:08:01;;;;;;;5.03;3.90;;;;;;;14.95;100.00;95399.03;10326471;28;20042;-72